Nevis, Minnesota
Current Conditions -  °F | °C
As of 4:53 AM on Friday 31 Oct 2014 (Local Time) from KPKD Reporting Station
Clear Clear  
Wind Chill:   Ceiling: Unl
Heat Index: 17°   Visibility: 10mi
Dew Point: 14°   Wind: 7mph
Humidity: 88%   Direction: 330°NNW
Pressure: 30.52"   Gusts: NA
Location:  46.97°N, 94.84°W
Report Text: KPKD 310953Z AUTO 33006KT 10SM CLR M08/M10 A3052 RMK AO2 SLP361 T10831100 TSNO
Loading
Personal Weather Stations






























Interactive Weather Map
Tropical Storm Tracking
New forecast layout! Learn more

10-Day Weather Forecast

Advertisements
Track Severe Weather on mobile